KSNS/SNS METAR and TAF weather

Enter ICAO airport designator
Station Type Date Time Source
KSNS METAR 2022/12/02 23:53 UTC NOAA

KSNS 022353Z AUTO 08005KT 10SM FEW036 12/07 A3007 RMK AO2 SLP192 T01220067 10133 20078 56009


Station Type Date Time Source
KSNS Decoded METAR 2022/12/02 23:53 UTC NOAA

SALINAS MUNICIPAL AIRPORT, CA, United States (KSNS) 36-40N 121-36W 30M
Dec 02, 2022 - 06:53 PM EST / 2022.12.02 2353 UTC
Wind: from the E (080 degrees) at 6 MPH (5 KT):0
Visibility: 10 mile(s):0
Sky conditions: mostly clear
Temperature: 54.0 F (12.2 C)
Dew Point: 44.1 F (6.7 C)
Relative Humidity: 69%
Pressure (altimeter): 30.07 in. Hg (1018 hPa)
Pressure tendency: 0.03 inches (0.9 hPa) lower than three hours ago
ob: KSNS 022353Z AUTO 08005KT 10SM FEW036 12/07 A3007 RMK AO2 SLP192 T01220067 10133 20078 56009
cycle: 0

Station Type Date Time Source
KSNS TAF 2022/12/02 18:42 UTC NOAA

TAF KSNS 021739Z 0218/0318 12008KT P6SM FEW200
FM022300 30006KT P6SM FEW200
FM030300 VRB04KT P6SM SCT050
FM030700 12010KT P6SM VCSH FEW025 OVC050
FM031000 12008KT 6SM -RA BKN030

Example: see airport list